Terminal Aerodrome Forecast
Issued by NWS Tuscon, AZ

Home | Current Version | Previous Version | Text Only | Print | Product List | Glossary On
Versions: 1 2 3 4 5 6 7 8 9 10 11 12
999
FTUS45 KTWC 222334
TAFDUG
TAF
KDUG 222334Z 2300/2324 24022G32KT P6SM SCT200
     FM230300 21014G20KT P6SM BKN200
     FM231400 24014KT P6SM SCT050 SCT080
     FM231800 27020G30KT P6SM SCT080=

USA.gov is the U.S. government's official web portal to all federal, state and local government web resources and services.